Time;durP1;ratioP1;P1;durP2;ratioP2;P2;SDS_P1;SDS_P2;PMS_P1;PMS_P2;Temp;Humidity;BMP_temperature;BMP_pressure;BME280_temperature;BME280_humidity;BME280_pressure;Samples;Min_cycle;Max_cycle;Signal;HPM_P1;HPM_P2
2022/12/28 00:02:05;;;;;;;;;4.00;3.00;;;;;9.58;76.58;101473.06;5016963;28;46998;-56
2022/12/28 00:04:30;;;;;;;;;7.25;6.00;;;;;9.61;77.11;101469.97;5016534;28;45438;-57
2022/12/28 00:06:56;;;;;;;;;4.50;4.50;;;;;9.53;75.94;101448.97;4999222;28;45436;-57
2022/12/28 00:09:21;;;;;;;;;5.25;5.25;;;;;9.61;76.21;101453.50;5017203;28;45470;-58
2022/12/28 00:11:47;;;;;;;;;4.50;3.50;;;;;9.54;76.57;101436.97;5030250;28;46583;-60
2022/12/28 00:14:12;;;;;;;;;6.50;5.00;;;;;9.62;76.33;101449.72;5036634;28;45481;-59
2022/12/28 00:16:38;;;;;;;;;3.75;3.75;;;;;9.60;76.27;101427.13;5036253;28;45336;-60
2022/12/28 00:19:06;;;;;;;;;4.00;3.00;;;;;9.61;76.32;101450.78;5019094;28;45610;-57
2022/12/28 00:21:32;;;;;;;;;8.20;3.80;;;;;9.62;76.20;101442.34;5036526;28;46053;-55
2022/12/28 00:23:59;;;;;;;;;4.40;4.40;;;;;9.55;76.67;101424.94;5000787;28;45374;-55
2022/12/28 00:26:25;;;;;;;;;4.80;3.20;;;;;9.43;75.88;101388.09;5036845;28;45313;-58
2022/12/28 00:28:51;;;;;;;;;5.20;4.00;;;;;9.44;76.45;101387.91;5036385;28;45409;-60
2022/12/28 00:31:16;;;;;;;;;5.50;4.00;;;;;9.59;76.09;101422.69;5036384;28;46879;-58
2022/12/28 00:33:42;;;;;;;;;6.00;3.00;;;;;9.34;76.44;101373.66;5035711;28;45294;-59
2022/12/28 00:36:14;;;;;;;;;3.75;3.00;;;;;9.65;76.22;101413.72;5030365;28;45533;-60
2022/12/28 00:38:39;;;;;;;;;5.60;4.80;;;;;9.65;76.15;101401.91;5008601;28;45496;-53
2022/12/28 00:41:05;;;;;;;;;4.00;3.00;;;;;9.71;76.11;101401.97;5016403;28;46501;-56
2022/12/28 00:43:30;;;;;;;;;4.50;4.00;;;;;9.70;75.20;101388.47;5018115;28;45332;-58
2022/12/28 00:45:56;;;;;;;;;6.75;4.25;;;;;9.71;76.08;101396.50;5036218;28;45373;-58
2022/12/28 00:48:22;;;;;;;;;6.00;3.00;;;;;9.71;76.12;101396.50;5036388;28;45354;-59
2022/12/28 00:50:47;;;;;;;;;6.00;3.25;;;;;9.66;76.16;101381.69;5018214;28;45558;-58
2022/12/28 00:53:13;;;;;;;;;7.25;4.00;;;;;9.74;75.24;101389.78;5018214;28;45414;-59
2022/12/28 00:55:38;;;;;;;;;6.00;4.00;;;;;9.62;75.96;101373.81;5036283;28;45340;-59
2022/12/28 00:58:04;;;;;;;;;4.00;3.00;;;;;9.73;75.87;101388.09;5018194;28;45351;-57
2022/12/28 01:00:29;;;;;;;;;3.50;3.50;;;;;9.74;75.86;101378.81;5035900;28;45978;-54
2022/12/28 01:02:55;;;;;;;;;3.75;3.50;;;;;9.76;75.99;101393.19;5035557;28;45345;-53
2022/12/28 01:05:21;;;;;;;;;3.50;3.00;;;;;9.76;75.53;101371.25;5035993;28;45197;-54
2022/12/28 01:07:47;;;;;;;;;2.40;2.20;;;;;9.75;75.38;101377.78;5036339;28;45145;-55
2022/12/28 01:10:12;;;;;;;;;7.75;3.00;;;;;9.51;76.21;101333.22;5000635;28;45384;-57
2022/12/28 01:12:38;;;;;;;;;4.00;4.00;;;;;9.71;75.76;101362.78;5035876;28;45318;-59
2022/12/28 01:15:04;;;;;;;;;5.50;4.00;;;;;9.56;76.61;101333.47;5035551;28;45314;-57
2022/12/28 01:17:30;;;;;;;;;6.40;3.60;;;;;9.57;75.83;101343.41;5036096;28;45376;-58
2022/12/28 01:19:55;;;;;;;;;3.75;3.00;;;;;9.67;75.39;101354.09;5017257;28;46870;-59
2022/12/28 01:22:21;;;;;;;;;5.75;3.50;;;;;9.73;76.28;101353.28;5035570;28;45432;-59
2022/12/28 01:24:46;;;;;;;;;3.00;3.00;;;;;9.78;75.43;101355.47;5035769;28;45450;-57
2022/12/28 01:27:12;;;;;;;;;3.25;3.25;;;;;9.69;76.13;101345.66;5035863;28;45851;-57
2022/12/28 01:29:37;;;;;;;;;6.00;5.50;;;;;9.81;76.23;101359.75;5017385;28;45577;-53
2022/12/28 01:32:03;;;;;;;;;3.50;3.50;;;;;9.34;75.36;101270.38;5017695;28;45461;-54
2022/12/28 01:34:29;;;;;;;;;4.00;2.25;;;;;9.79;76.36;101345.34;5034887;28;45298;-57
2022/12/28 01:36:54;;;;;;;;;2.25;2.25;;;;;9.85;76.01;101347.31;5035751;28;45307;-57
2022/12/28 01:39:19;;;;;;;;;5.50;3.75;;;;;9.85;75.87;101350.94;5034950;28;46338;-59
2022/12/28 01:41:45;;;;;;;;;5.50;3.50;;;;;9.82;75.90;101348.56;5013578;28;45691;-59
2022/12/28 01:44:10;;;;;;;;;2.50;2.50;;;;;9.70;75.67;101337.25;5011919;28;45371;-60
2022/12/28 01:46:40;;;;;;;;;6.00;4.00;;;;;9.64;75.06;101318.81;5035402;28;45331;-60
2022/12/28 01:49:09;;;;;;;;;1.20;1.00;;;;;9.90;75.00;101356.69;5017770;28;46241;-51
2022/12/28 01:51:49;;;;;;;;;3.00;1.60;;;;;9.75;75.77;101336.66;5016938;28;45422;-57
2022/12/28 01:54:14;;;;;;;;;6.20;3.00;;;;;9.93;75.15;101360.09;5016964;28;45371;-55
2022/12/28 01:56:40;;;;;;;;;3.25;2.25;;;;;9.95;75.20;101352.50;5016329;28;45553;-52
2022/12/28 01:59:05;;;;;;;;;3.50;2.50;;;;;9.94;75.73;101348.94;5000177;28;47818;-54
2022/12/28 02:01:31;;;;;;;;;2.00;2.00;;;;;9.96;75.34;101344.09;5034835;28;45307;-58
2022/12/28 02:03:56;;;;;;;;;6.25;3.25;;;;;9.99;75.79;101345.59;5035271;28;45390;-58
2022/12/28 02:06:22;;;;;;;;;2.50;2.25;;;;;9.98;75.67;101341.16;5017796;28;45400;-58
2022/12/28 02:09:12;;;;;;;;;1.75;1.75;;;;;10.00;75.01;101345.41;5034761;28;45849;-58
2022/12/28 02:11:37;;;;;;;;;3.00;1.40;;;;;10.01;74.73;101343.50;5034903;28;45336;-59
2022/12/28 02:14:03;;;;;;;;;7.00;6.00;;;;;9.85;75.70;101311.69;5017376;28;45559;-57
2022/12/28 02:16:28;;;;;;;;;4.25;4.25;;;;;10.01;74.93;101340.75;5017366;28;45633;-53
2022/12/28 02:18:54;;;;;;;;;4.25;4.25;;;;;9.90;75.65;101323.78;5034825;28;46610;-52
2022/12/28 02:21:30;;;;;;;;;6.25;3.00;;;;;10.01;76.39;101340.75;5017555;28;45243;-55
2022/12/28 02:24:33;;;;;;;;;3.80;2.80;;;;;10.03;75.63;101345.00;5018067;28;45461;-58
2022/12/28 02:27:20;;;;;;;;;6.40;3.00;;;;;9.85;75.20;101315.28;5017131;28;45259;-59
2022/12/28 02:29:58;;;;;;;;;4.40;2.40;;;;;9.95;75.30;101325.94;5034383;28;46410;-59
2022/12/28 02:32:58;;;;;;;;;6.40;5.20;;;;;10.00;75.59;101325.34;5001387;28;45404;-59
2022/12/28 02:35:32;;;;;;;;;4.00;3.60;;;;;10.04;75.83;101329.44;5017051;28;45417;-56
2022/12/28 02:38:22;;;;;;;;;5.00;3.00;;;;;10.03;75.59;101328.56;5035081;28;45169;-58
2022/12/28 02:40:55;;;;;;;;;5.20;5.20;;;;;9.96;75.67;101299.34;5016483;28;46186;-55
2022/12/28 02:43:21;;;;;;;;;3.00;3.00;;;;;10.01;75.71;101310.59;5017494;28;45419;-58
2022/12/28 02:51:38;;;;;;;;;6.60;2.80;;;;;9.84;76.16;101266.97;5038390;28;45860;-56
2022/12/28 02:57:44;;;;;;;;;6.60;5.60;;;;;10.04;75.25;101307.47;5038345;28;45460;-56
2022/12/28 03:00:17;;;;;;;;;3.20;3.20;;;;;10.05;75.55;101303.69;5006436;28;45340;-58
2022/12/28 03:02:54;;;;;;;;;6.00;6.00;;;;;10.02;76.08;101288.47;5004701;28;45510;-55
2022/12/28 03:08:56;;;;;;;;;5.20;4.00;;;;;9.86;76.07;101261.28;5038231;28;45401;-54
2022/12/28 03:11:47;;;;;;;;;3.60;3.60;;;;;10.05;75.94;101292.72;5038297;28;45322;-57
2022/12/28 03:14:16;;;;;;;;;5.00;4.00;;;;;9.93;75.40;101272.34;5020978;28;48061;-59
2022/12/28 03:33:16;;;;;;;;;5.60;5.60;;;;;9.87;75.85;101227.38;5037952;28;45346;-57
2022/12/28 03:35:45;;;;;;;;;7.00;3.50;;;;;10.10;75.83;101267.44;5037533;28;45366;-57
2022/12/28 03:38:12;;;;;;;;;8.40;6.00;;;;;10.12;75.85;101265.34;5036964;28;45941;-58
2022/12/28 03:41:00;;;;;;;;;3.40;3.40;;;;;10.06;75.96;101258.75;5019493;28;45541;-56
2022/12/28 03:43:42;;;;;;;;;5.60;5.20;;;;;10.08;76.43;101244.84;5005660;28;45674;-53
2022/12/28 03:46:18;;;;;;;;;3.80;3.80;;;;;10.08;76.82;101244.84;5006430;28;46751;-55
2022/12/28 03:48:44;;;;;;;;;6.00;6.00;;;;;10.16;75.58;101263.91;5019735;28;45487;-59
2022/12/28 03:51:11;;;;;;;;;6.25;4.50;;;;;10.16;76.07;101253.78;5019209;28;45423;-58
2022/12/28 03:53:43;;;;;;;;;3.40;3.40;;;;;10.08;75.82;101236.63;5019561;28;45411;-58
2022/12/28 03:56:11;;;;;;;;;4.80;3.40;;;;;10.11;75.90;101252.69;5019638;28;45616;-56
2022/12/28 03:58:37;;;;;;;;;4.00;3.60;;;;;10.09;76.74;101246.56;5018527;28;45384;-57
2022/12/28 04:01:03;;;;;;;;;5.75;5.75;;;;;10.12;76.16;101255.22;5037519;28;45429;-63
2022/12/28 04:03:28;;;;;;;;;7.00;6.50;;;;;10.13;76.29;101247.84;5019255;28;45372;-58
2022/12/28 04:05:54;;;;;;;;;5.00;5.00;;;;;10.14;76.40;101244.91;5018717;28;46729;-58
2022/12/28 04:08:20;;;;;;;;;5.00;4.20;;;;;10.13;75.67;101243.22;5037000;28;45394;-58
2022/12/28 04:10:45;;;;;;;;;7.25;6.00;;;;;10.19;75.41;101243.47;5036933;28;45380;-58
2022/12/28 04:13:11;;;;;;;;;3.00;3.00;;;;;10.00;75.71;101216.53;5019142;28;45425;-54
2022/12/28 04:15:36;;;;;;;;;8.50;4.00;;;;;10.13;75.83;101223.16;5018565;28;46003;-54
2022/12/28 04:18:02;;;;;;;;;5.00;3.00;;;;;10.12;76.33;101233.28;5036851;28;45374;-51
2022/12/28 04:20:27;;;;;;;;;3.75;3.00;;;;;9.93;76.15;101195.56;5036591;28;45343;-52
2022/12/28 04:22:53;;;;;;;;;2.75;2.75;;;;;9.92;76.13;101189.22;5019428;28;45635;-57
2022/12/28 04:25:18;;;;;;;;;4.00;3.00;;;;;10.13;76.69;101226.75;5036529;28;45362;-57
2022/12/28 04:27:44;;;;;;;;;6.75;4.00;;;;;9.96;76.22;101189.66;5036643;28;45356;-60
2022/12/28 04:30:09;;;;;;;;;4.50;4.00;;;;;10.14;76.50;101214.72;5036639;28;45308;-58
2022/12/28 04:32:35;;;;;;;;;5.75;5.25;;;;;10.18;76.62;101215.19;5032179;28;46613;-58
2022/12/28 04:35:00;;;;;;;;;4.00;4.00;;;;;10.02;77.00;101181.50;5035956;28;45393;-59
2022/12/28 04:37:26;;;;;;;;;4.00;4.00;;;;;10.17;76.55;101208.00;5001159;28;45524;-59
2022/12/28 04:39:51;;;;;;;;;4.00;4.00;;;;;10.17;76.51;101208.00;5035761;28;45366;-57
2022/12/28 04:42:17;;;;;;;;;4.75;3.50;;;;;10.15;76.41;101207.38;5035964;28;45603;-55
2022/12/28 04:44:42;;;;;;;;;6.75;4.00;;;;;10.13;76.58;101206.69;5032410;28;45796;-53
2022/12/28 04:47:08;;;;;;;;;5.75;4.00;;;;;10.17;76.93;101211.63;5035472;28;45355;-53
2022/12/28 04:49:33;;;;;;;;;4.50;4.50;;;;;10.17;76.72;101197.91;5017318;28;45243;-56
2022/12/28 04:51:59;;;;;;;;;3.75;2.25;;;;;9.95;77.08;101169.66;5017613;28;45236;-56
2022/12/28 04:54:24;;;;;;;;;2.00;2.00;;;;;10.16;77.27;101206.31;5032583;28;46208;-58
2022/12/28 04:56:50;;;;;;;;;6.00;3.00;;;;;10.15;77.30;101202.72;5035916;28;45350;-59
2022/12/28 04:59:15;;;;;;;;;4.00;3.00;;;;;10.14;77.10;101192.78;5036163;28;45485;-59
2022/12/28 05:01:41;;;;;;;;;3.00;3.00;;;;;10.10;77.64;101186.03;5035960;28;45390;-58
2022/12/28 05:04:06;;;;;;;;;1.25;1.25;;;;;10.10;77.54;101186.03;5017924;28;45713;-59
2022/12/28 05:06:32;;;;;;;;;2.75;2.75;;;;;10.14;77.45;101181.81;5035906;28;45474;-57
2022/12/28 05:08:57;;;;;;;;;3.00;3.00;;;;;10.09;76.86;101167.84;5035601;28;45794;-55
2022/12/28 05:11:25;;;;;;;;;3.00;3.00;;;;;10.15;77.07;101169.78;5035816;28;45398;-56
2022/12/28 05:13:50;;;;;;;;;2.00;2.00;;;;;10.14;77.98;101173.59;5015565;28;46498;-53
2022/12/28 05:16:18;;;;;;;;;4.00;4.00;;;;;10.15;77.56;101168.97;5015870;28;45361;-56
2022/12/28 05:18:43;;;;;;;;;5.80;3.20;;;;;10.18;77.50;101160.31;4982004;28;45762;-59
2022/12/28 05:21:12;;;;;;;;;5.50;4.00;;;;;9.94;77.22;101115.84;5015834;28;45373;-59
2022/12/28 05:23:38;;;;;;;;;2.60;2.60;;;;;10.16;77.28;101160.50;5015879;28;45772;-60
2022/12/28 05:26:08;;;;;;;;;6.00;3.25;;;;;10.15;77.30;101161.56;4997516;28;45495;-57
2022/12/28 05:28:33;;;;;;;;;3.80;2.40;;;;;10.14;77.98;101162.63;5015749;28;45433;-54
2022/12/28 05:31:00;;;;;;;;;8.75;2.25;;;;;10.15;77.62;101161.56;5015629;28;45311;-57
2022/12/28 05:33:27;;;;;;;;;4.80;4.00;;;;;10.12;77.74;101156.50;5015394;28;46593;-58
2022/12/28 05:35:52;;;;;;;;;4.80;3.20;;;;;10.14;78.73;101159.88;5006053;28;46029;-57
2022/12/28 05:38:17;;;;;;;;;2.00;2.00;;;;;10.12;77.82;101155.63;4992990;28;45424;-59
2022/12/28 05:40:43;;;;;;;;;4.00;3.25;;;;;10.17;78.46;101153.16;5013685;28;45584;-59
2022/12/28 05:43:08;;;;;;;;;4.00;4.00;;;;;10.13;77.77;101141.72;5015068;28;45602;-58
2022/12/28 05:45:34;;;;;;;;;3.25;3.25;;;;;10.16;77.98;101152.28;5015448;28;45368;-55
2022/12/28 05:48:00;;;;;;;;;3.75;3.00;;;;;10.15;78.64;101150.59;5015620;28;45392;-56
2022/12/28 05:50:25;;;;;;;;;4.00;3.00;;;;;10.17;78.36;101145.78;5015631;28;45446;-56
2022/12/28 05:52:50;;;;;;;;;2.75;2.75;;;;;10.16;77.94;101157.78;5015162;28;45977;-54
2022/12/28 05:55:16;;;;;;;;;3.25;3.25;;;;;10.11;78.49;101142.97;5014960;28;45330;-57
2022/12/28 05:57:42;;;;;;;;;4.75;4.00;;;;;10.09;78.85;101137.69;5015537;28;45378;-56
2022/12/28 06:00:08;;;;;;;;;4.75;4.00;;;;;10.14;78.06;101137.94;5015299;28;45246;-58
2022/12/28 06:02:33;;;;;;;;;4.50;4.00;;;;;10.14;78.12;101137.94;5015504;28;47026;-58
2022/12/28 06:04:59;;;;;;;;;7.50;3.00;;;;;10.12;78.67;101137.28;5015040;28;45395;-60
2022/12/28 06:07:24;;;;;;;;;3.75;3.75;;;;;10.14;78.31;101132.44;5013919;28;45384;-59
2022/12/28 06:09:49;;;;;;;;;5.00;3.25;;;;;10.14;78.43;101131.63;5015655;28;45498;-58
2022/12/28 06:12:15;;;;;;;;;3.00;3.00;;;;;10.15;78.54;101122.34;5000532;28;45415;-57
2022/12/28 06:14:40;;;;;;;;;4.75;3.50;;;;;10.17;78.30;101128.47;5035219;28;45365;-55
2022/12/28 06:17:06;;;;;;;;;5.00;5.00;;;;;10.16;78.14;101121.28;5034667;28;45471;-56
2022/12/28 06:19:31;;;;;;;;;8.50;3.50;;;;;10.15;78.12;101114.09;5035300;28;45384;-54
2022/12/28 06:21:57;;;;;;;;;4.50;4.00;;;;;10.15;77.98;101116.84;5034933;28;46349;-57
2022/12/28 06:24:22;;;;;;;;;2.50;2.50;;;;;9.98;77.93;101086.97;5034913;28;45328;-58
2022/12/28 06:26:48;;;;;;;;;7.00;4.00;;;;;10.16;77.63;101102.91;5035112;28;45345;-58
2022/12/28 06:29:14;;;;;;;;;3.80;3.80;;;;;10.17;78.16;101099.16;5034811;28;45327;-57
2022/12/28 06:31:42;;;;;;;;;6.25;4.50;;;;;10.18;77.62;101105.47;5034837;28;45322;-57
2022/12/28 06:34:08;;;;;;;;;4.60;4.00;;;;;10.19;78.15;101096.19;5016969;28;45270;-58
2022/12/28 06:36:35;;;;;;;;;3.25;3.25;;;;;10.20;77.93;101097.03;5034676;28;45321;-56
2022/12/28 06:39:02;;;;;;;;;5.20;2.80;;;;;9.98;77.74;101056.81;5035546;28;45461;-55
2022/12/28 06:41:28;;;;;;;;;4.00;4.00;;;;;10.20;77.58;101083.31;5034335;28;46062;-58
2022/12/28 06:43:54;;;;;;;;;7.25;3.75;;;;;10.16;78.04;101086.44;5017257;28;45378;-58
2022/12/28 06:46:20;;;;;;;;;7.00;6.25;;;;;10.20;78.14;101086.06;5034669;28;45452;-60
2022/12/28 06:48:46;;;;;;;;;4.00;4.00;;;;;10.17;78.09;101079.94;5035282;28;45537;-59
2022/12/28 06:51:15;;;;;;;;;5.75;4.00;;;;;10.13;77.34;101078.63;5016597;28;46424;-57
2022/12/28 06:53:41;;;;;;;;;4.00;3.80;;;;;10.15;77.83;101073.78;5034517;28;45362;-56
2022/12/28 06:56:15;;;;;;;;;8.75;5.25;;;;;10.20;77.51;101078.69;5016810;28;45401;-56
2022/12/28 06:58:40;;;;;;;;;6.80;3.80;;;;;10.22;77.13;101078.47;5016754;28;45382;-59
2022/12/28 07:01:07;;;;;;;;;7.25;4.25;;;;;10.22;77.84;101071.09;5034285;28;46863;-58
2022/12/28 07:03:33;;;;;;;;;5.40;3.60;;;;;10.21;77.86;101063.06;5034134;28;45440;-57
2022/12/28 07:06:00;;;;;;;;;7.75;3.75;;;;;10.19;77.86;101060.53;5034480;28;45457;-56
2022/12/28 07:08:26;;;;;;;;;5.40;4.40;;;;;10.17;77.73;101066.22;5034452;28;45434;-57
2022/12/28 07:10:51;;;;;;;;;7.40;4.00;;;;;10.03;77.03;101026.03;5033952;28;46496;-54
2022/12/28 07:13:17;;;;;;;;;3.25;3.25;;;;;10.17;77.32;101055.25;5009949;28;45504;-57
2022/12/28 07:15:42;;;;;;;;;6.00;3.25;;;;;10.17;77.52;101055.25;5028117;28;45702;-59
2022/12/28 07:18:08;;;;;;;;;5.25;3.00;;;;;9.92;77.79;101007.41;5015234;28;45389;-58
2022/12/28 07:20:33;;;;;;;;;8.75;6.00;;;;;10.17;77.19;101044.28;5034118;28;46701;-58
2022/12/28 07:22:59;;;;;;;;;3.00;3.00;;;;;10.19;77.60;101029.50;5034231;28;45346;-59
2022/12/28 07:25:24;;;;;;;;;4.75;2.75;;;;;10.19;77.45;101040.50;5034286;28;45455;-58
2022/12/28 07:27:50;;;;;;;;;7.00;5.25;;;;;10.19;77.19;101024.03;5034059;28;45591;-58
2022/12/28 07:30:16;;;;;;;;;3.00;3.00;;;;;10.14;77.04;101020.00;5033873;28;46655;-56
2022/12/28 07:32:41;;;;;;;;;2.75;2.75;;;;;9.70;77.14;100938.94;5034702;28;46022;-55
2022/12/28 07:35:07;;;;;;;;;7.75;7.50;;;;;10.20;77.25;101022.97;5037538;28;45399;-51
2022/12/28 07:37:33;;;;;;;;;4.00;4.00;;;;;10.12;77.15;101019.34;5037563;28;45342;-51
2022/12/28 07:39:58;;;;;;;;;7.00;5.00;;;;;10.22;77.70;101024.47;5018722;28;47664;-56
2022/12/28 07:42:23;;;;;;;;;5.00;3.00;;;;;10.17;77.52;101010.50;5037094;28;45421;-57
2022/12/28 07:44:49;;;;;;;;;6.75;5.00;;;;;10.23;77.33;101019.81;5037042;28;45424;-59
2022/12/28 07:47:15;;;;;;;;;4.25;3.25;;;;;10.00;77.55;100977.94;5037419;28;45635;-58
2022/12/28 07:49:40;;;;;;;;;6.75;3.00;;;;;10.06;76.85;100991.88;5037146;28;46271;-60
2022/12/28 07:52:06;;;;;;;;;3.00;3.00;;;;;10.25;76.86;101013.06;5036775;28;45350;-60
2022/12/28 07:54:31;;;;;;;;;5.25;2.75;;;;;10.30;76.86;101015.22;5036959;28;45428;-60
2022/12/28 07:56:57;;;;;;;;;8.25;6.50;;;;;10.29;77.13;101006.16;5037050;28;45133;-58
2022/12/28 07:59:22;;;;;;;;;4.00;4.00;;;;;10.12;76.96;100974.59;5036831;28;45452;-57
2022/12/28 08:01:49;;;;;;;;;9.50;6.25;;;;;10.26;76.94;101000.22;5036521;28;45388;-59
2022/12/28 08:04:15;;;;;;;;;15.20;12.60;;;;;10.30;76.59;101005.09;5037037;28;45381;-58
2022/12/28 08:06:42;;;;;;;;;5.00;3.00;;;;;10.27;76.35;101002.78;5018854;28;45642;-60
2022/12/28 08:09:09;;;;;;;;;6.80;3.80;;;;;10.26;77.13;101002.97;5036616;28;45613;-60
2022/12/28 08:11:36;;;;;;;;;3.60;2.80;;;;;10.25;76.54;100999.34;5036932;28;45458;-60
2022/12/28 08:14:02;;;;;;;;;4.60;4.60;;;;;10.26;76.83;100997.47;5036486;28;45448;-61
2022/12/28 08:16:30;;;;;;;;;5.25;3.75;;;;;10.22;76.60;100991.56;5036969;28;45383;-60
2022/12/28 08:18:56;;;;;;;;;6.40;4.00;;;;;10.26;76.94;100986.50;5036544;28;45310;-59
2022/12/28 08:21:21;;;;;;;;;11.00;6.50;;;;;10.25;76.63;100985.63;5036777;28;45638;-58
2022/12/28 08:23:47;;;;;;;;;7.00;5.75;;;;;10.23;77.29;100975.91;5036926;28;45377;-59
2022/12/28 08:26:18;;;;;;;;;8.25;3.75;;;;;10.12;77.11;100955.41;5036764;28;45366;-59
2022/12/28 08:28:44;;;;;;;;;5.40;4.00;;;;;9.77;76.66;100905.03;5036456;28;45918;-55
2022/12/28 08:31:14;;;;;;;;;8.80;6.20;;;;;10.26;76.75;100975.53;5018075;28;45425;-60
2022/12/28 08:33:39;;;;;;;;;1.80;1.00;;;;;10.12;76.04;100960.91;5037107;28;45291;-57
2022/12/28 08:36:05;;;;;;;;;7.00;3.00;;;;;10.20;76.85;100960.75;5036351;28;45493;-57
2022/12/28 08:38:31;;;;;;;;;3.40;3.00;;;;;10.26;76.56;100965.38;5036714;28;46493;-59
2022/12/28 08:40:57;;;;;;;;;3.75;3.00;;;;;10.28;76.41;100970.69;5036356;28;45371;-60
2022/12/28 08:43:23;;;;;;;;;6.20;4.00;;;;;10.26;76.56;100970.03;5035971;28;45407;-61
2022/12/28 08:46:01;;;;;;;;;6.75;4.00;;;;;10.28;76.96;100974.28;5035676;28;45374;-59
2022/12/28 08:48:27;;;;;;;;;3.60;3.60;;;;;10.29;76.51;100967.72;5036036;28;45442;-60
2022/12/28 08:50:52;;;;;;;;;5.50;2.50;;;;;9.97;76.36;100908.94;5036507;28;45794;-59
2022/12/28 08:53:23;;;;;;;;;6.00;6.00;;;;;10.33;76.54;100965.44;5004794;28;45975;-60
2022/12/28 08:55:49;;;;;;;;;3.80;3.00;;;;;10.34;76.18;100969.03;5025878;28;45999;-57
2022/12/28 08:58:15;;;;;;;;;3.40;3.00;;;;;10.36;76.54;100969.66;5035744;28;46294;-57
2022/12/28 09:00:40;;;;;;;;;3.00;3.00;;;;;10.36;76.15;100964.19;5018391;28;45447;-58
2022/12/28 09:03:06;;;;;;;;;4.00;2.75;;;;;10.28;76.34;100935.00;5018552;28;45257;-56
2022/12/28 09:05:31;;;;;;;;;2.00;2.00;;;;;10.44;75.97;100948.41;5018370;28;45529;-59
2022/12/28 09:07:57;;;;;;;;;2.25;2.25;;;;;10.50;75.60;100949.47;5001666;28;45553;-60
2022/12/28 09:10:22;;;;;;;;;3.75;2.00;;;;;10.37;74.96;100905.50;5035684;28;45450;-59
2022/12/28 09:12:48;;;;;;;;;4.75;3.00;;;;;10.57;75.46;100949.50;5036008;28;45262;-59
2022/12/28 09:15:13;;;;;;;;;3.00;2.50;;;;;10.58;75.73;100942.97;5018098;28;45628;-59
2022/12/28 09:17:39;;;;;;;;;8.00;4.75;;;;;10.57;75.50;100949.50;5017611;28;46605;-58
2022/12/28 09:20:05;;;;;;;;;3.00;3.00;;;;;10.50;75.29;100926.66;5035871;28;45272;-56
2022/12/28 09:22:30;;;;;;;;;5.20;3.20;;;;;10.60;74.98;100946.34;4982163;28;46818;-55
2022/12/28 09:24:56;;;;;;;;;2.50;2.00;;;;;10.60;75.20;100938.09;5009004;28;45926;-58
2022/12/28 09:27:21;;;;;;;;;2.50;2.50;;;;;10.53;74.93;100898.81;5013775;28;46488;-57
2022/12/28 09:29:47;;;;;;;;;4.00;3.00;;;;;10.61;75.56;100934.31;5000643;28;45786;-53
2022/12/28 09:32:12;;;;;;;;;5.25;4.00;;;;;10.64;75.35;100914.69;5014747;28;45422;-53
2022/12/28 09:34:38;;;;;;;;;3.00;3.00;;;;;10.64;75.36;100919.31;5014751;28;45350;-58
2022/12/28 09:37:04;;;;;;;;;5.25;4.00;;;;;10.41;75.29;100891.16;5031868;28;46023;-59
2022/12/28 09:39:30;;;;;;;;;5.40;4.00;;;;;10.65;75.14;100930.09;5014176;28;45410;-59
2022/12/28 09:42:04;;;;;;;;;3.50;3.25;;;;;10.67;74.62;100918.91;5033838;28;45438;-53
2022/12/28 09:44:58;;;;;;;;;3.60;3.00;;;;;10.62;75.45;100916.78;5033816;28;45552;-60
2022/12/28 09:47:47;;;;;;;;;7.00;3.20;;;;;10.58;74.78;100901.78;5019423;28;46284;-56
2022/12/28 09:50:15;;;;;;;;;4.00;3.00;;;;;10.68;74.71;100920.59;5000936;28;45564;-56
2022/12/28 09:53:01;;;;;;;;;8.00;5.20;;;;;10.71;74.46;100926.53;5015413;28;45443;-58
2022/12/28 09:55:27;;;;;;;;;7.40;5.00;;;;;10.79;74.84;100927.38;5014705;28;45424;-58
2022/12/28 09:57:55;;;;;;;;;4.00;4.00;;;;;10.67;74.55;100899.69;5002074;28;46437;-59
2022/12/28 10:00:22;;;;;;;;;7.00;5.20;;;;;10.77;74.78;100921.25;5014922;28;45472;-58
2022/12/28 10:02:59;;;;;;;;;3.00;3.00;;;;;10.77;74.20;100916.59;5032237;28;45480;-56
2022/12/28 10:05:25;;;;;;;;;7.40;7.40;;;;;10.84;74.17;100931.16;5017618;28;45433;-59
2022/12/28 10:07:51;;;;;;;;;5.00;2.20;;;;;10.84;74.51;100913.88;5034942;28;45425;-57
2022/12/28 10:10:17;;;;;;;;;6.50;5.00;;;;;10.97;74.23;100910.28;5000693;28;45568;-59
2022/12/28 10:12:43;;;;;;;;;5.80;4.60;;;;;11.09;73.17;100910.47;4998935;28;45351;-60
2022/12/28 10:15:11;;;;;;;;;4.75;3.00;;;;;11.05;72.79;100901.00;4998930;28;45760;-59
2022/12/28 10:17:37;;;;;;;;;4.80;4.80;;;;;11.10;72.51;100904.78;5015247;28;45814;-59
2022/12/28 10:20:06;;;;;;;;;3.75;3.75;;;;;11.11;72.86;100900.97;5033372;28;45409;-58
2022/12/28 10:22:36;;;;;;;;;2.00;2.00;;;;;11.11;72.30;100894.66;5015510;28;45534;-60
2022/12/28 10:25:02;;;;;;;;;2.80;2.00;;;;;11.07;72.87;100896.97;4969052;28;45395;-56
2022/12/28 10:27:30;;;;;;;;;6.50;3.50;;;;;10.85;72.89;100875.19;5031518;28;47859;-61
2022/12/28 10:29:58;;;;;;;;;3.00;3.00;;;;;11.02;72.24;100904.16;5032915;28;45582;-60
2022/12/28 10:32:23;;;;;;;;;4.00;3.80;;;;;10.93;72.48;100879.66;5031539;28;45345;-59
2022/12/28 10:34:55;;;;;;;;;3.25;3.25;;;;;10.95;72.30;100884.94;5032877;28;45492;-60
2022/12/28 10:37:21;;;;;;;;;3.00;2.20;;;;;10.90;72.74;100888.31;5031520;28;45849;-60
2022/12/28 10:39:56;;;;;;;;;2.00;2.00;;;;;10.94;72.40;100892.31;5015281;28;45459;-60
2022/12/28 10:42:28;;;;;;;;;3.00;3.00;;;;;10.91;72.27;100878.16;5015133;28;45481;-60
2022/12/28 10:44:58;;;;;;;;;4.20;3.20;;;;;10.98;72.50;100892.72;5016204;28;45414;-59
2022/12/28 10:47:26;;;;;;;;;2.40;2.00;;;;;10.96;72.18;100873.75;5013739;28;46268;-60
2022/12/28 10:49:52;;;;;;;;;1.60;1.00;;;;;10.77;72.14;100842.47;5014009;28;45439;-60
2022/12/28 10:52:19;;;;;;;;;3.75;3.75;;;;;10.87;72.23;100858.53;5015279;28;45805;-59
2022/12/28 10:54:44;;;;;;;;;2.80;2.80;;;;;10.92;72.22;100868.88;5032992;28;45590;-58
2022/12/28 10:57:18;;;;;;;;;2.00;2.00;;;;;10.91;72.27;100868.03;5032491;28;45725;-60
2022/12/28 10:59:45;;;;;;;;;4.00;3.00;;;;;10.91;72.48;100856.19;5031251;28;45428;-60
2022/12/28 11:02:28;;;;;;;;;3.60;3.40;;;;;10.91;72.68;100870.78;4990858;28;46263;-61
2022/12/28 11:05:02;;;;;;;;;3.80;2.00;;;;;10.92;72.11;100857.88;4991132;28;45995;-62
2022/12/28 11:07:29;;;;;;;;;3.20;3.00;;;;;10.94;72.30;100848.38;5008505;28;46523;-62
2022/12/28 11:10:13;;;;;;;;;2.80;2.80;;;;;10.97;71.67;100842.47;5014701;28;45543;-59
2022/12/28 11:12:44;;;;;;;;;3.40;2.60;;;;;10.97;71.27;100828.75;5024213;28;45521;-60
2022/12/28 11:15:17;;;;;;;;;0.60;0.40;;;;;11.10;71.65;100832.53;5021618;28;45427;-60
2022/12/28 11:17:43;;;;;;;;;2.00;2.00;;;;;11.19;71.01;100814.75;5032550;28;46884;-59
2022/12/28 11:20:19;;;;;;;;;3.25;3.25;;;;;11.23;70.64;100801.44;4996634;28;45831;-62
2022/12/28 11:22:45;;;;;;;;;5.40;3.00;;;;;11.23;70.75;100794.06;5026248;28;45863;-62
2022/12/28 11:25:14;;;;;;;;;1.75;1.75;;;;;11.16;70.77;100771.22;5029937;28;45465;-61
2022/12/28 11:27:39;;;;;;;;;4.00;2.20;;;;;11.12;71.07;100759.81;5027823;28;45836;-58
2022/12/28 11:30:06;;;;;;;;;6.50;3.00;;;;;11.34;71.05;100778.81;5012301;28;45715;-59
2022/12/28 11:32:35;;;;;;;;;1.00;1.00;;;;;11.28;70.53;100757.69;5012045;28;45467;-60
2022/12/28 11:35:00;;;;;;;;;4.00;4.00;;;;;11.38;70.56;100769.03;4998408;28;45625;-61
2022/12/28 11:37:26;;;;;;;;;3.00;3.00;;;;;11.41;70.36;100761.44;5022148;28;46116;-61
2022/12/28 11:39:52;;;;;;;;;3.50;3.50;;;;;11.21;70.37;100729.38;5032011;28;45419;-61
2022/12/28 11:42:36;;;;;;;;;3.40;3.40;;;;;11.39;69.93;100762.47;5030780;28;45475;-60
2022/12/28 11:45:15;;;;;;;;;5.80;5.80;;;;;11.37;70.56;100745.38;5033020;28;45535;-59
2022/12/28 11:47:41;;;;;;;;;3.00;3.00;;;;;11.33;70.31;100735.03;5031687;28;45529;-62
2022/12/28 11:50:38;;;;;;;;;3.00;2.00;;;;;11.35;70.68;100752.16;5031342;28;45503;-62
2022/12/28 11:53:33;;;;;;;;;3.40;2.80;;;;;11.37;70.52;100731.63;4979302;28;45583;-61
2022/12/28 11:56:05;;;;;;;;;3.60;3.60;;;;;11.13;70.08;100700.25;5021269;28;46847;-62
2022/12/28 11:58:42;;;;;;;;;2.20;2.20;;;;;11.38;70.12;100738.81;5033652;28;46133;-61
2022/12/28 12:01:08;;;;;;;;;2.80;2.80;;;;;11.41;70.09;100721.06;5033523;28;45541;-63